Terminal Aerodrome Forecast
Issued by NWS

Home | Current Version | Previous Version | Text Only | Print | Product List | Glossary On
Versions: 1 2 3 4 5 6 7 8 9 10 11 12
000
FTUS45 KVEF 231100
TAFBIH
TAF
KBIH 231120Z 2312/2412 32006KT P6SM FEW150 BKN250
     FM232000 17010KT P6SM FEW250
     FM240500 32006KT P6SM SKC=

USA.gov is the U.S. government's official web portal to all federal, state and local government web resources and services.